createdAt,value
2022-08-01T00:07:51.299Z,17.41
2022-08-01T00:17:53.561Z,17.35
2022-08-01T00:27:55.839Z,17.28
2022-08-01T00:37:58.283Z,17.18
2022-08-01T00:48:00.561Z,17.08
2022-08-01T00:58:05.461Z,16.97
2022-08-01T01:08:20.562Z,16.88
2022-08-01T01:18:39.048Z,16.80
2022-08-01T01:29:22.202Z,16.71
2022-08-01T01:39:27.026Z,16.56
2022-08-01T01:49:31.314Z,16.47
2022-08-01T01:59:36.503Z,16.31
2022-08-01T02:09:43.395Z,16.15
2022-08-01T02:19:46.932Z,16.01
2022-08-01T02:29:53.837Z,15.89
2022-08-01T02:39:57.139Z,15.79
2022-08-01T02:50:01.310Z,15.69
2022-08-01T03:00:03.969Z,15.58
2022-08-01T03:10:07.176Z,15.45
2022-08-01T03:20:11.670Z,15.39
2022-08-01T03:30:15.012Z,15.31
2022-08-01T03:40:29.545Z,15.21
2022-08-01T03:50:35.063Z,15.11
2022-08-01T04:00:40.507Z,15.02
2022-08-01T04:10:43.117Z,14.95
2022-08-01T04:20:48.017Z,14.88
2022-08-01T04:30:53.334Z,14.80
2022-08-01T04:40:57.685Z,14.80
2022-08-01T04:51:00.371Z,14.90
2022-08-01T05:01:02.642Z,15.05
2022-08-01T05:11:05.054Z,15.27
2022-08-01T05:21:07.599Z,15.53
2022-08-01T05:31:09.958Z,15.88
2022-08-01T05:41:12.164Z,16.24
2022-08-01T05:51:14.547Z,16.64
2022-08-01T06:01:17.319Z,17.09
2022-08-01T06:11:19.518Z,17.53
2022-08-01T06:21:21.845Z,18.06
2022-08-01T06:31:24.133Z,18.64
2022-08-01T06:41:26.388Z,19.20
2022-08-01T06:51:28.885Z,19.82
2022-08-01T07:01:35.091Z,20.44
2022-08-01T07:11:37.566Z,20.97
2022-08-01T07:21:41.856Z,21.47
2022-08-01T07:31:44.361Z,21.99
2022-08-01T07:42:05.583Z,22.54
2022-08-01T07:52:10.669Z,23.21
2022-08-01T08:02:12.986Z,23.85
2022-08-01T08:12:15.246Z,24.38
2022-08-01T08:22:17.649Z,24.82
2022-08-01T08:32:20.049Z,25.27
2022-08-01T08:42:27.916Z,25.73
2022-08-01T08:52:32.298Z,26.18
2022-08-01T09:02:47.330Z,26.51
2022-08-01T09:13:14.359Z,26.75
2022-08-01T09:23:53.804Z,27.08
2022-08-01T09:34:00.023Z,27.61
2022-08-01T09:44:03.191Z,27.88
2022-08-01T09:54:07.981Z,28.15
2022-08-01T10:04:19.416Z,28.24
2022-08-01T10:14:24.205Z,28.34
2022-08-01T10:24:30.543Z,28.72
2022-08-01T10:34:35.611Z,29.04
2022-08-01T10:44:40.464Z,29.40
2022-08-01T10:54:52.251Z,29.80
2022-08-01T11:05:23.996Z,30.01
2022-08-01T11:15:29.274Z,30.11
2022-08-01T11:26:03.107Z,30.44
2022-08-01T11:36:42.815Z,30.50
2022-08-01T11:46:51.977Z,31.02
2022-08-01T11:56:59.463Z,31.31
2022-08-01T12:07:15.130Z,31.51
2022-08-01T12:17:19.955Z,31.86
2022-08-01T12:27:28.179Z,32.05
2022-08-01T12:37:30.982Z,32.35
2022-08-01T12:47:33.794Z,32.55
2022-08-01T12:57:45.427Z,32.91
2022-08-01T13:07:51.673Z,33.33
2022-08-01T13:17:56.328Z,33.46
2022-08-01T13:28:22.718Z,33.25
2022-08-01T13:38:45.764Z,33.60
2022-08-01T13:48:50.687Z,33.83
2022-08-01T13:58:54.046Z,34.56
2022-08-01T14:08:56.805Z,35.05
2022-08-01T14:18:59.678Z,34.84
2022-08-01T14:29:03.315Z,34.27
2022-08-01T14:39:14.833Z,34.32
2022-08-01T14:49:18.141Z,34.24
2022-08-01T14:59:21.607Z,33.52
2022-08-01T15:09:24.623Z,32.67
2022-08-01T15:19:27.146Z,31.57
2022-08-01T15:29:30.009Z,31.70
2022-08-01T15:39:34.399Z,31.68
2022-08-01T15:49:38.503Z,31.00
2022-08-01T15:59:42.017Z,30.82
2022-08-01T16:09:48.217Z,30.15
2022-08-01T16:19:52.415Z,29.53
2022-08-01T16:29:55.473Z,29.18
2022-08-01T16:39:59.527Z,28.76
2022-08-01T16:50:02.452Z,28.41
2022-08-01T17:00:09.034Z,28.04
2022-08-01T17:10:14.623Z,27.68
2022-08-01T17:20:17.754Z,27.19
2022-08-01T17:30:22.155Z,26.84
2022-08-01T17:40:39.714Z,26.63
2022-08-01T17:50:45.406Z,26.36
2022-08-01T18:00:49.223Z,26.06
2022-08-01T18:10:52.180Z,25.83
2022-08-01T18:20:54.867Z,25.66
2022-08-01T18:31:01.068Z,25.83
2022-08-01T18:41:03.980Z,25.65
2022-08-01T18:51:11.509Z,25.23
2022-08-01T19:01:14.933Z,24.59
2022-08-01T19:11:17.281Z,24.22
2022-08-01T19:21:20.152Z,23.88
2022-08-01T19:31:28.559Z,23.45
2022-08-01T19:41:33.636Z,23.07
2022-08-01T19:51:53.324Z,22.71
2022-08-01T20:01:57.319Z,22.38
2022-08-01T20:12:00.081Z,21.98
2022-08-01T20:22:07.713Z,21.78
2022-08-01T20:32:10.440Z,21.53
2022-08-01T20:42:14.845Z,21.33
2022-08-01T20:52:17.751Z,21.23
2022-08-01T21:03:01.629Z,21.20
2022-08-01T21:13:07.923Z,21.15
2022-08-01T21:23:22.597Z,20.98
2022-08-01T21:33:27.337Z,20.81
2022-08-01T21:43:33.156Z,20.68
2022-08-01T21:54:10.374Z,20.44
2022-08-01T22:04:18.102Z,20.20
2022-08-01T22:14:22.092Z,19.92
2022-08-01T22:24:25.435Z,19.71
2022-08-01T22:34:28.124Z,19.44
2022-08-01T22:44:43.452Z,19.18
2022-08-01T22:55:01.238Z,18.93
2022-08-01T23:05:08.474Z,18.74
2022-08-01T23:15:11.997Z,18.57
2022-08-01T23:25:15.845Z,18.33
2022-08-01T23:35:18.291Z,18.17
2022-08-01T23:45:21.848Z,18.03
2022-08-01T23:55:36.923Z,17.88
